Station Historical Data
Daily Summary for May 4, 2011 Units:  English    Metric   Both
« Previous Day
Next Day »
Daily Weekly Monthly Yearly Custom
  High: Low: Average:
Temperature: 62.7 °F 41.4 °F 51.5 °F
Dew Point: 44.8 °F 36.2 °F 40.8 °F
Humidity: 99% 39% 70%
Wind Speed: 15.0mph 0.0mph 4.4mph
Wind Gust: 18.0mph - -
Wind- - SW
Pressure: 30.38 in 30.25 in -
Precipitation: 0.00 in    
Historical Graphs
 
 
Tabular Data for May 4, 2011
Time Temperature Dew Point Pressure Wind Wind Speed Wind Gust Humidity Rainfall Rate (Hourly) Conditions
00:00 44.5 °F 44.0 °F 30.25 in Calm     98% 0.00 in
00:01 44.4 °F 43.9 °F 30.25 in Calm     98% 0.00 in
00:02 44.3 °F 43.8 °F 30.25 in Calm     98% 0.00 in
00:06 44.1 °F 43.6 °F 30.25 in Calm     98% 0.00 in
00:08 44.3 °F 43.8 °F 30.25 in Calm     98% 0.00 in
00:13 44.5 °F 44.0 °F 30.25 in Calm     98% 0.00 in
00:18 44.6 °F 44.1 °F 30.25 in Calm     98% 0.00 in
00:23 44.8 °F 44.3 °F 30.25 in Calm     98% 0.00 in
00:28 44.9 °F 44.4 °F 30.25 in Calm     98% 0.00 in
00:30 44.9 °F 44.6 °F 30.25 in Calm     99% 0.00 in
00:33 45.1 °F 44.8 °F 30.25 in Calm     99% 0.00 in
00:34 45.1 °F 44.8 °F 30.25 in Calm     99% 0.00 in
00:36 45.0 °F 44.7 °F 30.25 in Calm     99% 0.00 in
00:39 44.7 °F 44.4 °F 30.25 in Calm     99% 0.00 in
00:44 44.3 °F 43.8 °F 30.26 in Calm     98% 0.00 in
00:45 44.3 °F 43.8 °F 30.26 in Calm     98% 0.00 in
00:49 44.0 °F 43.5 °F 30.26 in Calm     98% 0.00 in
00:54 43.7 °F 43.2 °F 30.26 in Calm     98% 0.00 in
00:55 43.7 °F 43.2 °F 30.26 in Calm     98% 0.00 in
00:57 43.7 °F 43.2 °F 30.26 in Calm     98% 0.00 in
01:00 43.7 °F 43.2 °F 30.25 in Calm     98% 0.00 in
01:02 43.9 °F 43.4 °F 30.25 in Calm     98% 0.00 in
01:07 43.9 °F 43.4 °F 30.26 in Calm     98% 0.00 in
01:12 44.0 °F 43.7 °F 30.26 in Calm     99% 0.00 in
01:17 44.2 °F 43.9 °F 30.25 in Calm     99% 0.00 in
01:22 44.0 °F 43.7 °F 30.26 in Calm     99% 0.00 in
01:27 43.6 °F 43.1 °F 30.26 in Calm     98% 0.00 in
01:28 43.6 °F 43.1 °F 30.26 in Calm     98% 0.00 in
01:33 43.2 °F 42.7 °F 30.25 in Calm     98% 0.00 in
01:35 43.1 °F 42.6 °F 30.25 in Calm     98% 0.00 in
01:38 42.9 °F 42.4 °F 30.25 in Calm     98% 0.00 in
01:40 42.9 °F 42.4 °F 30.25 in Calm     98% 0.00 in
01:45 42.7 °F 42.2 °F 30.25 in Calm     98% 0.00 in
01:50 42.7 °F 42.2 °F 30.25 in Calm     98% 0.00 in
01:55 42.3 °F 41.8 °F 30.25 in Calm     98% 0.00 in
01:56 42.3 °F 41.8 °F 30.25 in Calm     98% 0.00 in
01:58 42.2 °F 41.7 °F 30.25 in Calm     98% 0.00 in
02:03 42.3 °F 41.8 °F 30.25 in Calm     98% 0.00 in
02:08 42.2 °F 41.7 °F 30.26 in Calm     98% 0.00 in
02:13 41.9 °F 41.4 °F 30.26 in Calm     98% 0.00 in
02:18 42.0 °F 41.5 °F 30.26 in Calm     98% 0.00 in
02:23 41.9 °F 41.4 °F 30.26 in Calm     98% 0.00 in
02:28 41.7 °F 41.2 °F 30.26 in Calm     98% 0.00 in
02:29 41.7 °F 41.2 °F 30.26 in Calm     98% 0.00 in
02:32 41.5 °F 41.0 °F 30.26 in Calm     98% 0.00 in
02:34 41.5 °F 41.0 °F 30.26 in Calm     98% 0.00 in
02:36 41.4 °F 40.9 °F 30.26 in Calm     98% 0.00 in
02:41 41.4 °F 41.1 °F 30.26 in Calm     99% 0.00 in
02:46 42.0 °F 41.7 °F 30.26 in Calm     99% 0.00 in
02:51 42.2 °F 41.9 °F 30.26 in Calm     99% 0.00 in
02:54 42.2 °F 41.9 °F 30.26 in Calm     99% 0.00 in
02:56 42.2 °F 41.9 °F 30.26 in Calm     99% 0.00 in
02:57 42.2 °F 41.9 °F 30.26 in Calm     99% 0.00 in
02:59 42.4 °F 42.1 °F 30.26 in Calm     99% 0.00 in
03:02 42.5 °F 42.2 °F 30.26 in Calm     99% 0.00 in
03:07 42.6 °F 42.3 °F 30.25 in NW 1.0 mph 1.0 mph 99% 0.00 in
03:12 42.5 °F 42.2 °F 30.26 in Calm   1.0 mph 99% 0.00 in
03:13 42.5 °F 42.2 °F 30.26 in NW 1.0 mph 1.0 mph 99% 0.00 in
03:17 42.4 °F 42.1 °F 30.26 in Calm   1.0 mph 99% 0.00 in
03:23 42.6 °F 42.3 °F 30.26 in Calm   1.0 mph 99% 0.00 in
03:28 42.7 °F 42.4 °F 30.26 in WNW 1.0 mph 1.0 mph 99% 0.00 in
03:30 42.6 °F 42.3 °F 30.26 in WNW 1.0 mph 1.0 mph 99% 0.00 in
03:33 42.8 °F 42.5 °F 30.26 in Calm   1.0 mph 99% 0.00 in
03:38 42.9 °F 42.6 °F 30.26 in WNW 1.0 mph 1.0 mph 99% 0.00 in
03:43 43.1 °F 42.6 °F 30.27 in Calm   1.0 mph 98% 0.00 in
03:48 43.1 °F 42.6 °F 30.26 in WNW 1.0 mph 1.0 mph 98% 0.00 in
03:53 43.2 °F 42.1 °F 30.26 in WNW 1.0 mph 2.0 mph 96% 0.00 in
03:58 43.3 °F 42.2 °F 30.26 in NW 1.0 mph 2.0 mph 96% 0.00 in
04:03 43.3 °F 42.0 °F 30.27 in NW 1.0 mph 1.0 mph 95% 0.00 in
04:08 43.2 °F 41.9 °F 30.27 in WNW 2.0 mph 2.0 mph 95% 0.00 in
04:14 43.3 °F 41.7 °F 30.27 in WNW 2.0 mph 3.0 mph 94% 0.00 in
04:19 43.5 °F 41.9 °F 30.27 in WNW 1.0 mph 3.0 mph 94% 0.00 in
04:21 43.6 °F 42.0 °F 30.27 in WNW 2.0 mph 2.0 mph 94% 0.00 in
04:26 43.6 °F 42.0 °F 30.27 in WNW 2.0 mph 2.0 mph 94% 0.00 in
04:29 43.7 °F 41.8 °F 30.27 in WNW 2.0 mph 3.0 mph 93% 0.00 in
04:31 43.7 °F 41.8 °F 30.27 in WNW 2.0 mph 3.0 mph 93% 0.00 in
04:36 43.8 °F 41.9 °F 30.27 in WNW 2.0 mph 3.0 mph 93% 0.00 in
04:37 43.8 °F 41.9 °F 30.27 in WNW 3.0 mph 3.0 mph 93% 0.00 in
04:42 43.9 °F 42.0 °F 30.27 in WNW 2.0 mph 3.0 mph 93% 0.00 in
04:47 43.9 °F 42.0 °F 30.27 in NW 2.0 mph 3.0 mph 93% 0.00 in
04:52 43.8 °F 41.9 °F 30.27 in WNW 1.0 mph 2.0 mph 93% 0.00 in
04:57 43.7 °F 41.8 °F 30.27 in NNW 3.0 mph 3.0 mph 93% 0.00 in
05:02 43.9 °F 41.7 °F 30.27 in NW 2.0 mph 3.0 mph 92% 0.00 in
05:07 43.8 °F 41.6 °F 30.27 in NW 3.0 mph 3.0 mph 92% 0.00 in
05:12 43.6 °F 41.4 °F 30.27 in NW 3.0 mph 4.0 mph 92% 0.00 in
05:17 43.5 °F 41.3 °F 30.27 in NNW 2.0 mph 3.0 mph 92% 0.00 in
05:22 43.7 °F 41.5 °F 30.27 in NW 4.0 mph 5.0 mph 92% 0.00 in
05:27 43.9 °F 41.5 °F 30.27 in NW 3.0 mph 3.0 mph 91% 0.00 in
05:28 43.9 °F 41.5 °F 30.27 in NW 2.0 mph 3.0 mph 91% 0.00 in
05:33 43.8 °F 41.3 °F 30.27 in NW 3.0 mph 3.0 mph 91% 0.00 in
05:35 43.8 °F 41.3 °F 30.27 in NNW 2.0 mph 3.0 mph 91% 0.00 in
05:38 43.8 °F 41.3 °F 30.28 in NNW 2.0 mph 3.0 mph 91% 0.00 in
05:41 43.7 °F 41.2 °F 30.28 in NNW 2.0 mph 3.0 mph 91% 0.00 in
05:43 43.6 °F 41.2 °F 30.28 in NNW 3.0 mph 4.0 mph 91% 0.00 in
05:48 43.7 °F 41.5 °F 30.28 in NW 3.0 mph 5.0 mph 92% 0.00 in
05:53 43.9 °F 41.5 °F 30.28 in North 3.0 mph 6.0 mph 91% 0.00 in
05:54 43.9 °F 41.5 °F 30.28 in North 3.0 mph 6.0 mph 91% 0.00 in
05:56 43.9 °F 41.5 °F 30.28 in NNW 7.0 mph 7.0 mph 91% 0.00 in
05:59 43.9 °F 41.5 °F 30.28 in North 6.0 mph 8.0 mph 91% 0.00 in
06:02 43.9 °F 41.2 °F 30.28 in NNW 6.0 mph 7.0 mph 90% 0.00 in
06:05 43.9 °F 41.2 °F 30.28 in North 6.0 mph 7.0 mph 90% 0.00 in
06:09 43.9 °F 41.2 °F 30.29 in NW 2.0 mph 6.0 mph 90% 0.00 in
06:10 43.8 °F 41.1 °F 30.29 in NNW 6.0 mph 9.0 mph 90% 0.00 in
06:15 43.7 °F 41.0 °F 30.29 in NW 4.0 mph 5.0 mph 90% 0.00 in
06:16 43.6 °F 40.9 °F 30.29 in NNW 5.0 mph 5.0 mph 90% 0.00 in
06:21 43.6 °F 41.2 °F 30.29 in NNW 4.0 mph 6.0 mph 91% 0.00 in
06:26 43.5 °F 41.0 °F 30.30 in NNW 3.0 mph 8.0 mph 91% 0.00 in
06:31 43.4 °F 41.0 °F 30.30 in NNW 4.0 mph 8.0 mph 91% 0.00 in
06:32 43.4 °F 41.0 °F 30.30 in North 4.0 mph 8.0 mph 91% 0.00 in
06:36 43.3 °F 40.8 °F 30.30 in NNW 3.0 mph 6.0 mph 91% 0.00 in
06:41 43.2 °F 40.8 °F 30.30 in NNE 2.0 mph 8.0 mph 91% 0.00 in
06:46 43.0 °F 40.6 °F 30.30 in North 4.0 mph 9.0 mph 91% 0.00 in
06:52 42.9 °F 40.5 °F 30.30 in North 4.0 mph 8.0 mph 91% 0.00 in
06:57 42.7 °F 40.5 °F 30.30 in North 5.0 mph 9.0 mph 92% 0.00 in
06:58 42.7 °F 40.5 °F 30.31 in NNW 3.0 mph 9.0 mph 92% 0.00 in
07:02 42.5 °F 40.3 °F 30.31 in NNE 5.0 mph 6.0 mph 92% 0.00 in
07:07 42.5 °F 40.3 °F 30.31 in NNW 5.0 mph 7.0 mph 92% 0.00 in
07:12 42.4 °F 40.2 °F 30.31 in NNW 6.0 mph 7.0 mph 92% 0.00 in
07:17 42.3 °F 40.2 °F 30.31 in North 3.0 mph 7.0 mph 92% 0.00 in
07:22 42.3 °F 40.2 °F 30.31 in North 5.0 mph 6.0 mph 92% 0.00 in
07:23 42.3 °F 40.2 °F 30.31 in North 3.0 mph 6.0 mph 92% 0.00 in
07:28 42.2 °F 40.0 °F 30.32 in NNE 4.0 mph 6.0 mph 92% 0.00 in
07:33 42.3 °F 40.2 °F 30.32 in NNE 3.0 mph 7.0 mph 92% 0.00 in
07:34 42.4 °F 40.2 °F 30.32 in North 5.0 mph 7.0 mph 92% 0.00 in
07:36 42.4 °F 40.2 °F 30.32 in North 4.0 mph 6.0 mph 92% 0.00 in
07:39 42.4 °F 40.2 °F 30.32 in NNE 4.0 mph 7.0 mph 92% 0.00 in
07:41 42.6 °F 40.4 °F 30.32 in NNW 3.0 mph 7.0 mph 92% 0.00 in
07:46 43.1 °F 40.7 °F 30.32 in NNW 3.0 mph 7.0 mph 91% 0.00 in
07:51 43.5 °F 40.8 °F 30.32 in North 5.0 mph 7.0 mph 90% 0.00 in
07:56 43.9 °F 40.9 °F 30.32 in NNW 2.0 mph 7.0 mph 89% 0.00 in
07:59 44.0 °F 41.0 °F 30.33 in NW 5.0 mph 9.0 mph 89% 0.00 in
08:02 44.0 °F 41.0 °F 30.33 in NNW 3.0 mph 8.0 mph 89% 0.00 in
08:07 44.3 °F 41.0 °F 30.33 in NNE 5.0 mph 6.0 mph 88% 0.00 in
08:12 44.6 °F 41.0 °F 30.33 in North 7.0 mph 7.0 mph 87% 0.00 in
08:17 44.9 °F 41.0 °F 30.34 in NNE 5.0 mph 8.0 mph 86% 0.00 in
08:22 45.3 °F 41.4 °F 30.34 in NNW 4.0 mph 6.0 mph 86% 0.00 in
08:23 45.3 °F 41.4 °F 30.34 in NNW 6.0 mph 8.0 mph 86% 0.00 in
08:27 45.6 °F 41.4 °F 30.34 in NNW 4.0 mph 7.0 mph 85% 0.00 in
08:29 45.7 °F 40.8 °F 30.34 in NNW 4.0 mph 8.0 mph 83% 0.00 in
08:32 45.9 °F 40.7 °F 30.34 in NNW 5.0 mph 11.0 mph 82% 0.00 in
08:33 46.0 °F 41.1 °F 30.34 in NNE 5.0 mph 8.0 mph 83% 0.00 in
08:34 46.0 °F 41.1 °F 30.34 in NNW 4.0 mph 8.0 mph 83% 0.00 in
08:37 46.3 °F 41.7 °F 30.34 in NW 3.0 mph 6.0 mph 84% 0.00 in
08:38 46.4 °F 41.8 °F 30.34 in North 5.0 mph 7.0 mph 84% 0.00 in
08:43 46.4 °F 40.2 °F 30.34 in North 9.0 mph 12.0 mph 79% 0.00 in
08:48 46.5 °F 40.3 °F 30.34 in NNW 8.0 mph 12.0 mph 79% 0.00 in
08:53 46.7 °F 40.2 °F 30.34 in NNW 10.0 mph 14.0 mph 78% 0.00 in
08:56 46.7 °F 40.2 °F 30.34 in NW 6.0 mph 13.0 mph 78% 0.00 in
08:58 46.9 °F 41.7 °F 30.34 in North 4.0 mph 11.0 mph 82% 0.00 in
08:59 46.9 °F 41.1 °F 30.34 in NNW 9.0 mph 11.0 mph 80% 0.00 in
09:01 47.1 °F 40.3 °F 30.34 in NNW 7.0 mph 12.0 mph 77% 0.00 in
09:06 47.3 °F 41.5 °F 30.35 in NNW 10.0 mph 11.0 mph 80% 0.00 in
09:11 47.4 °F 40.6 °F 30.35 in NW 8.0 mph 12.0 mph 77% 0.00 in
09:16 47.6 °F 40.8 °F 30.35 in North 9.0 mph 12.0 mph 77% 0.00 in
09:21 47.9 °F 40.4 °F 30.35 in NNW 9.0 mph 14.0 mph 75% 0.00 in
09:26 48.1 °F 39.9 °F 30.35 in WNW 7.0 mph 14.0 mph 73% 0.00 in
09:27 48.1 °F 40.2 °F 30.35 in NNW 8.0 mph 14.0 mph 74% 0.00 in
09:32 48.3 °F 41.1 °F 30.36 in NW 7.0 mph 12.0 mph 76% 0.00 in
09:36 48.7 °F 40.8 °F 30.36 in North 5.0 mph 10.0 mph 74% 0.00 in
09:41 49.2 °F 42.0 °F 30.36 in NNW 3.0 mph 8.0 mph 76% 0.00 in
09:46 49.6 °F 41.7 °F 30.36 in NNE 6.0 mph 9.0 mph 74% 0.00 in
09:51 50.0 °F 41.0 °F 30.36 in NNW 7.0 mph 10.0 mph 71% 0.00 in
09:52 50.0 °F 41.0 °F 30.36 in NNE 5.0 mph 11.0 mph 71% 0.00 in
09:54 49.9 °F 40.9 °F 30.36 in NNW 6.0 mph 11.0 mph 71% 0.00 in
09:56 50.0 °F 41.7 °F 30.36 in NE 3.0 mph 11.0 mph 73% 0.00 in
10:00 50.2 °F 41.5 °F 30.36 in NNW 7.0 mph 9.0 mph 72% 0.00 in
10:01 50.3 °F 41.3 °F 30.36 in NW 7.0 mph 12.0 mph 71% 0.00 in
10:06 50.4 °F 41.4 °F 30.36 in WNW 10.0 mph 12.0 mph 71% 0.00 in
10:11 50.6 °F 41.2 °F 30.36 in NNW 9.0 mph 12.0 mph 70% 0.00 in
10:16 50.9 °F 41.5 °F 30.36 in NW 9.0 mph 9.0 mph 70% 0.00 in
10:22 51.2 °F 41.4 °F 30.36 in North 5.0 mph 11.0 mph 69% 0.00 in
10:27 51.5 °F 40.1 °F 30.36 in NW 7.0 mph 13.0 mph 65% 0.00 in
10:28 51.5 °F 40.9 °F 30.36 in NNW 8.0 mph 13.0 mph 67% 0.00 in
10:33 51.8 °F 41.6 °F 30.36 in NNW 5.0 mph 8.0 mph 68% 0.00 in
10:34 51.9 °F 42.8 °F 30.36 in NNW 9.0 mph 9.0 mph 71% 0.00 in
10:35 52.0 °F 41.8 °F 30.36 in NNW 6.0 mph 9.0 mph 68% 0.00 in
10:39 52.3 °F 41.7 °F 30.36 in NNW 6.0 mph 11.0 mph 67% 0.00 in
10:44 52.5 °F 41.9 °F 30.36 in NNW 6.0 mph 12.0 mph 67% 0.00 in
10:49 52.3 °F 42.1 °F 30.36 in NNW 9.0 mph 12.0 mph 68% 0.00 in
10:52 52.5 °F 42.3 °F 30.36 in NNW 7.0 mph 9.0 mph 68% 0.00 in
10:54 52.6 °F 41.6 °F 30.36 in NW 6.0 mph 9.0 mph 66% 0.00 in
10:58 52.7 °F 40.9 °F 30.36 in North 5.0 mph 8.0 mph 64% 0.00 in
10:59 52.8 °F 42.2 °F 30.36 in North 6.0 mph 8.0 mph 67% 0.00 in
11:04 53.2 °F 41.8 °F 30.37 in NNW 7.0 mph 11.0 mph 65% 0.00 in
11:05 53.3 °F 43.0 °F 30.37 in North 7.0 mph 10.0 mph 68% 0.00 in
11:10 53.6 °F 43.3 °F 30.37 in North 6.0 mph 10.0 mph 68% 0.00 in
11:11 53.6 °F 43.3 °F 30.36 in NW 8.0 mph 10.0 mph 68% 0.00 in
11:16 53.5 °F 40.8 °F 30.37 in WNW 10.0 mph 11.0 mph 62% 0.00 in
11:21 53.9 °F 43.2 °F 30.36 in North 9.0 mph 9.0 mph 67% 0.00 in
11:27 54.4 °F 40.8 °F 30.37 in NNW 9.0 mph 9.0 mph 60% 0.00 in
11:28 54.4 °F 40.0 °F 30.37 in NW 6.0 mph 11.0 mph 58% 0.00 in
11:33 54.6 °F 41.0 °F 30.37 in NNW 8.0 mph 13.0 mph 60% 0.00 in
11:34 54.6 °F 41.4 °F 30.37 in NNW 9.0 mph 13.0 mph 61% 0.00 in
11:39 54.7 °F 40.7 °F 30.37 in NW 10.0 mph 14.0 mph 59% 0.00 in
11:44 54.7 °F 38.9 °F 30.37 in NW 13.0 mph 13.0 mph 55% 0.00 in
11:49 54.8 °F 39.0 °F 30.37 in NNW 8.0 mph 14.0 mph 55% 0.00 in
11:54 55.0 °F 38.7 °F 30.38 in North 8.0 mph 11.0 mph 54% 0.00 in
11:55 55.0 °F 38.7 °F 30.38 in North 9.0 mph 11.0 mph 54% 0.00 in
11:58 55.3 °F 41.7 °F 30.37 in NW 6.0 mph 11.0 mph 60% 0.00 in
12:00 55.7 °F 42.0 °F 30.37 in WNW 3.0 mph 9.0 mph 60% 0.00 in
12:05 56.0 °F 39.6 °F 30.37 in WNW 8.0 mph 14.0 mph 54% 0.00 in
12:10 55.9 °F 40.0 °F 30.37 in WNW 9.0 mph 15.0 mph 55% 0.00 in
12:11 55.9 °F 40.0 °F 30.37 in WNW 9.0 mph 12.0 mph 55% 0.00 in
12:16 55.9 °F 39.5 °F 30.37 in NW 10.0 mph 15.0 mph 54% 0.00 in
12:21 56.1 °F 39.2 °F 30.37 in NW 11.0 mph 15.0 mph 53% 0.00 in
12:26 56.0 °F 38.6 °F 30.37 in NNW 12.0 mph 16.0 mph 52% 0.00 in
12:31 56.2 °F 40.3 °F 30.37 in NNE 6.0 mph 11.0 mph 55% 0.00 in
12:36 56.5 °F 40.1 °F 30.37 in NW 7.0 mph 9.0 mph 54% 0.00 in
12:42 57.1 °F 39.2 °F 30.37 in West 10.0 mph 12.0 mph 51% 0.00 in
12:47 57.2 °F 38.8 °F 30.37 in WNW 9.0 mph 17.0 mph 50% 0.00 in
12:52 57.0 °F 37.5 °F 30.37 in NNW 7.0 mph 12.0 mph 48% 0.00 in
12:57 57.1 °F 37.6 °F 30.37 in NW 8.0 mph 13.0 mph 48% 0.00 in
12:58 57.1 °F 37.6 °F 30.37 in NNW 8.0 mph 13.0 mph 48% 0.00 in
13:02 56.9 °F 38.5 °F 30.36 in NW 6.0 mph 11.0 mph 50% 0.00 in
13:08 56.9 °F 39.0 °F 30.37 in NNW 11.0 mph 14.0 mph 51% 0.00 in
13:13 57.4 °F 38.4 °F 30.37 in NW 12.0 mph 16.0 mph 49% 0.00 in
13:18 57.5 °F 36.9 °F 30.37 in WNW 12.0 mph 16.0 mph 46% 0.00 in
13:23 57.4 °F 36.2 °F 30.36 in NNW 11.0 mph 16.0 mph 45% 0.00 in
13:28 57.6 °F 39.1 °F 30.36 in North 13.0 mph 14.0 mph 50% 0.00 in
13:29 57.7 °F 39.2 °F 30.36 in NNW 9.0 mph 14.0 mph 50% 0.00 in
13:31 57.9 °F 39.4 °F 30.37 in NW 7.0 mph 13.0 mph 50% 0.00 in
13:33 58.0 °F 37.4 °F 30.37 in NNW 6.0 mph 13.0 mph 46% 0.00 in
13:34 58.0 °F 39.0 °F 30.36 in NW 7.0 mph 13.0 mph 49% 0.00 in
13:36 58.2 °F 40.2 °F 30.36 in NNE 15.0 mph 15.0 mph 51% 0.00 in
13:39 58.2 °F 39.2 °F 30.36 in NNE 9.0 mph 17.0 mph 49% 0.00 in
13:41 58.2 °F 39.7 °F 30.36 in North 12.0 mph 17.0 mph 50% 0.00 in
13:46 58.4 °F 39.8 °F 30.36 in WNW 10.0 mph 12.0 mph 50% 0.00 in
13:51 58.9 °F 40.8 °F 30.36 in WNW 6.0 mph 8.0 mph 51% 0.00 in
13:52 59.1 °F 42.0 °F 30.36 in WNW 8.0 mph 9.0 mph 53% 0.00 in
13:53 59.0 °F 41.9 °F 30.36 in WSW 4.0 mph 9.0 mph 53% 0.00 in
13:54 59.1 °F 40.5 °F 30.36 in WNW 4.0 mph 9.0 mph 50% 0.00 in
13:58 59.3 °F 40.2 °F 30.36 in NNW 10.0 mph 15.0 mph 49% 0.00 in
14:00 59.1 °F 38.9 °F 30.35 in NNW 13.0 mph 15.0 mph 47% 0.00 in
14:03 58.8 °F 39.2 °F 30.35 in NNW 12.0 mph 16.0 mph 48% 0.00 in
14:08 58.9 °F 39.3 °F 30.35 in North 10.0 mph 13.0 mph 48% 0.00 in
14:09 59.0 °F 39.9 °F 30.35 in NW 10.0 mph 13.0 mph 49% 0.00 in
14:13 59.0 °F 40.4 °F 30.35 in North 10.0 mph 10.0 mph 50% 0.00 in
14:14 59.0 °F 39.9 °F 30.35 in NW 7.0 mph 10.0 mph 49% 0.00 in
14:18 59.7 °F 38.9 °F 30.35 in WNW 8.0 mph 12.0 mph 46% 0.00 in
14:19 59.7 °F 37.8 °F 30.35 in NNW 13.0 mph 13.0 mph 44% 0.00 in
14:24 59.7 °F 37.2 °F 30.35 in NNW 12.0 mph 16.0 mph 43% 0.00 in
14:29 59.5 °F 36.4 °F 30.35 in NW 15.0 mph 18.0 mph 42% 0.00 in
14:30 59.4 °F 36.9 °F 30.35 in NNW 12.0 mph 18.0 mph 43% 0.00 in
14:34 59.2 °F 38.5 °F 30.35 in NW 7.0 mph 17.0 mph 46% 0.00 in
14:36 59.5 °F 38.7 °F 30.35 in NW 11.0 mph 14.0 mph 46% 0.00 in
14:41 59.8 °F 38.4 °F 30.35 in NW 13.0 mph 16.0 mph 45% 0.00 in
14:46 59.5 °F 37.6 °F 30.35 in NNW 11.0 mph 13.0 mph 44% 0.00 in
14:51 59.7 °F 38.9 °F 30.35 in North 15.0 mph 15.0 mph 46% 0.00 in
14:52 59.7 °F 37.2 °F 30.35 in NE 8.0 mph 15.0 mph 43% 0.00 in
14:56 60.1 °F 39.8 °F 30.35 in NW 4.0 mph 10.0 mph 47% 0.00 in
14:58 60.2 °F 39.9 °F 30.35 in NNW 11.0 mph 11.0 mph 47% 0.00 in
15:02 60.9 °F 41.1 °F 30.34 in North 7.0 mph 9.0 mph 48% 0.00 in
15:07 60.9 °F 38.3 °F 30.34 in NNW 9.0 mph 15.0 mph 43% 0.00 in
15:12 60.7 °F 39.3 °F 30.34 in NW 11.0 mph 15.0 mph 45% 0.00 in
15:17 60.5 °F 37.9 °F 30.34 in NW 8.0 mph 13.0 mph 43% 0.00 in
15:22 60.7 °F 40.9 °F 30.34 in NNW 9.0 mph 9.0 mph 48% 0.00 in
15:27 60.9 °F 39.4 °F 30.33 in North 9.0 mph 14.0 mph 45% 0.00 in
15:28 61.0 °F 40.7 °F 30.33 in NW 13.0 mph 14.0 mph 47% 0.00 in
15:31 60.9 °F 38.9 °F 30.33 in NW 10.0 mph 16.0 mph 44% 0.00 in
15:33 60.9 °F 38.9 °F 30.33 in NNW 8.0 mph 11.0 mph 44% 0.00 in
15:39 61.1 °F 39.0 °F 30.33 in WNW 6.0 mph 11.0 mph 44% 0.00 in
15:44 60.7 °F 37.5 °F 30.33 in WNW 5.0 mph 9.0 mph 42% 0.00 in
15:49 61.3 °F 40.4 °F 30.33 in NNE 11.0 mph 12.0 mph 46% 0.00 in
15:55 61.5 °F 38.8 °F 30.33 in NNE 4.0 mph 10.0 mph 43% 0.00 in
15:59 61.5 °F 39.4 °F 30.33 in NW 8.0 mph 11.0 mph 44% 0.00 in
16:04 61.9 °F 40.3 °F 30.32 in NW 6.0 mph 11.0 mph 45% 0.00 in
16:09 61.5 °F 40.0 °F 30.32 in NNW 6.0 mph 13.0 mph 45% 0.00 in
16:15 61.6 °F 38.9 °F 30.32 in NNW 7.0 mph 10.0 mph 43% 0.00 in
16:20 61.5 °F 40.5 °F 30.32 in NW 4.0 mph 11.0 mph 46% 0.00 in
16:25 61.7 °F 39.6 °F 30.32 in North 9.0 mph 13.0 mph 44% 0.00 in
16:26 61.7 °F 40.2 °F 30.32 in NNE 6.0 mph 13.0 mph 45% 0.00 in
16:31 61.7 °F 40.7 °F 30.31 in North 7.0 mph 13.0 mph 46% 0.00 in
16:34 62.0 °F 40.4 °F 30.31 in NNW 4.0 mph 10.0 mph 45% 0.00 in
16:36 62.3 °F 43.4 °F 30.31 in NW 4.0 mph 8.0 mph 50% 0.00 in
16:37 62.2 °F 43.3 °F 30.31 in WNW 12.0 mph 15.0 mph 50% 0.00 in
16:43 61.9 °F 39.8 °F 30.31 in NW 6.0 mph 8.0 mph 44% 0.00 in
16:51 62.1 °F 41.1 °F 30.31 in NNW 4.0 mph 11.0 mph 46% 0.00 in
16:52 62.2 °F 40.6 °F 30.31 in NNW 7.0 mph 11.0 mph 45% 0.00 in
16:56 62.1 °F 38.8 °F 30.31 in NNW 8.0 mph 9.0 mph 42% 0.00 in
16:57 62.0 °F 39.9 °F 30.31 in NW 7.0 mph 11.0 mph 44% 0.00 in
17:02 61.9 °F 39.8 °F 30.31 in NW 11.0 mph 13.0 mph 44% 0.00 in
17:08 61.9 °F 39.8 °F 30.30 in WNW 6.0 mph 10.0 mph 44% 0.00 in
17:13 62.1 °F 40.5 °F 30.30 in NW 4.0 mph 8.0 mph 45% 0.00 in
17:18 62.5 °F 40.3 °F 30.30 in West 11.0 mph 11.0 mph 44% 0.00 in
17:23 62.4 °F 39.6 °F 30.30 in NW 5.0 mph 10.0 mph 43% 0.00 in
17:28 62.2 °F 38.2 °F 30.30 in WNW 10.0 mph 11.0 mph 41% 0.00 in
17:33 62.1 °F 39.4 °F 30.30 in NNW 8.0 mph 9.0 mph 43% 0.00 in
17:34 62.1 °F 39.4 °F 30.30 in NW 5.0 mph 9.0 mph 43% 0.00 in
17:37 62.2 °F 40.0 °F 30.30 in NNE 4.0 mph 7.0 mph 44% 0.00 in
17:40 62.5 °F 41.5 °F 30.30 in NW 4.0 mph 7.0 mph 46% 0.00 in
17:45 62.7 °F 42.2 °F 30.30 in NW 2.0 mph 6.0 mph 47% 0.00 in
17:50 62.5 °F 39.1 °F 30.30 in WNW 5.0 mph 11.0 mph 42% 0.00 in
17:51 62.5 °F 39.1 °F 30.30 in NNW 4.0 mph 11.0 mph 42% 0.00 in
17:52 62.5 °F 39.1 °F 30.30 in NNE 6.0 mph 9.0 mph 42% 0.00 in
17:56 62.4 °F 40.2 °F 30.30 in NNE 6.0 mph 9.0 mph 44% 0.00 in
17:59 62.5 °F 39.7 °F 30.30 in NNE 5.0 mph 6.0 mph 43% 0.00 in
18:02 62.5 °F 40.9 °F 30.29 in NNW 5.0 mph 8.0 mph 45% 0.00 in
18:07 62.5 °F 40.3 °F 30.30 in North 7.0 mph 8.0 mph 44% 0.00 in
18:12 62.5 °F 37.9 °F 30.30 in NNW 7.0 mph 9.0 mph 40% 0.00 in
18:17 62.4 °F 37.8 °F 30.30 in NNW 3.0 mph 11.0 mph 40% 0.00 in
18:22 62.2 °F 37.6 °F 30.30 in NNW 2.0 mph 9.0 mph 40% 0.00 in
18:27 62.3 °F 39.5 °F 30.30 in North 9.0 mph 9.0 mph 43% 0.00 in
18:28 62.3 °F 38.3 °F 30.29 in NNE 4.0 mph 9.0 mph 41% 0.00 in
18:32 62.3 °F 37.0 °F 30.29 in North 4.0 mph 10.0 mph 39% 0.00 in
18:33 62.3 °F 38.9 °F 30.30 in NNW 4.0 mph 9.0 mph 42% 0.00 in
18:38 62.4 °F 37.8 °F 30.29 in NNE 5.0 mph 7.0 mph 40% 0.00 in
18:43 62.4 °F 40.2 °F 30.29 in NNW 6.0 mph 7.0 mph 44% 0.00 in
18:48 62.1 °F 38.1 °F 30.29 in North 6.0 mph 10.0 mph 41% 0.00 in
18:53 61.8 °F 37.9 °F 30.29 in NNW 5.0 mph 13.0 mph 41% 0.00 in
18:54 61.8 °F 37.9 °F 30.29 in NNW 5.0 mph 13.0 mph 41% 0.00 in
18:59 61.6 °F 39.5 °F 30.29 in NNW 4.0 mph 8.0 mph 44% 0.00 in
19:00 61.6 °F 38.9 °F 30.29 in NNW 5.0 mph 8.0 mph 43% 0.00 in
19:05 61.6 °F 38.3 °F 30.29 in NW 6.0 mph 8.0 mph 42% 0.00 in
19:10 61.6 °F 41.7 °F 30.29 in NNW 2.0 mph 7.0 mph 48% 0.00 in
19:11 61.7 °F 41.8 °F 30.29 in NNW 2.0 mph 4.0 mph 48% 0.00 in
19:16 61.7 °F 40.2 °F 30.29 in NNW 4.0 mph 6.0 mph 45% 0.00 in
19:17 61.7 °F 40.2 °F 30.29 in North 5.0 mph 6.0 mph 45% 0.00 in
19:22 61.6 °F 41.2 °F 30.29 in NNW 4.0 mph 5.0 mph 47% 0.00 in
19:27 61.4 °F 41.0 °F 30.29 in NNW 3.0 mph 6.0 mph 47% 0.00 in
19:32 61.2 °F 40.8 °F 30.29 in NW 3.0 mph 5.0 mph 47% 0.00 in
19:37 61.2 °F 40.8 °F 30.29 in North 3.0 mph 4.0 mph 47% 0.00 in
19:42 61.1 °F 41.3 °F 30.29 in NNW 1.0 mph 3.0 mph 48% 0.00 in
19:47 61.1 °F 41.8 °F 30.29 in NNW 1.0 mph 2.0 mph 49% 0.00 in
19:52 60.9 °F 40.5 °F 30.30 in NNW 2.0 mph 3.0 mph 47% 0.00 in
19:53 60.8 °F 40.5 °F 30.30 in NNW 3.0 mph 3.0 mph 47% 0.00 in
19:55 60.7 °F 41.5 °F 30.30 in North 2.0 mph 4.0 mph 49% 0.00 in
19:56 60.6 °F 41.9 °F 30.30 in NNW 3.0 mph 4.0 mph 50% 0.00 in
19:58 60.3 °F 41.1 °F 30.30 in North 2.0 mph 4.0 mph 49% 0.00 in
20:01 60.1 °F 41.9 °F 30.30 in NNW 1.0 mph 4.0 mph 51% 0.00 in
20:06 59.6 °F 42.0 °F 30.30 in North 1.0 mph 5.0 mph 52% 0.00 in
20:11 59.3 °F 41.2 °F 30.30 in North 2.0 mph 2.0 mph 51% 0.00 in
20:16 58.7 °F 41.1 °F 30.30 in North 1.0 mph 2.0 mph 52% 0.00 in
20:21 58.0 °F 41.0 °F 30.30 in Calm   1.0 mph 53% 0.00 in
20:26 57.4 °F 40.9 °F 30.30 in NNE 1.0 mph 2.0 mph 54% 0.00 in
20:31 56.8 °F 40.3 °F 30.30 in NNE 2.0 mph 2.0 mph 54% 0.00 in
20:34 56.6 °F 41.1 °F 30.30 in Calm   2.0 mph 56% 0.00 in
20:36 56.4 °F 40.9 °F 30.30 in ENE 1.0 mph 1.0 mph 56% 0.00 in
20:41 56.0 °F 40.5 °F 30.30 in NE 2.0 mph 2.0 mph 56% 0.00 in
20:46 55.7 °F 40.7 °F 30.30 in NE 1.0 mph 2.0 mph 57% 0.00 in
20:51 55.3 °F 40.8 °F 30.30 in NE 1.0 mph 1.0 mph 58% 0.00 in
20:52 55.3 °F 40.3 °F 30.31 in NE 1.0 mph 1.0 mph 57% 0.00 in
20:53 55.2 °F 40.2 °F 30.31 in Calm   1.0 mph 57% 0.00 in
20:57 54.9 °F 40.4 °F 30.31 in NE 1.0 mph 1.0 mph 58% 0.00 in
20:58 54.9 °F 40.4 °F 30.31 in NE 1.0 mph 1.0 mph 58% 0.00 in
21:03 54.5 °F 40.9 °F 30.31 in NNE 2.0 mph 2.0 mph 60% 0.00 in
21:08 54.1 °F 41.0 °F 30.31 in NE 1.0 mph 2.0 mph 61% 0.00 in
21:13 53.7 °F 40.6 °F 30.31 in NNE 2.0 mph 2.0 mph 61% 0.00 in
21:18 53.5 °F 40.8 °F 30.31 in NNE 2.0 mph 3.0 mph 62% 0.00 in
21:23 53.2 °F 41.0 °F 30.31 in NE 1.0 mph 3.0 mph 63% 0.00 in
21:28 53.1 °F 40.8 °F 30.31 in NE 4.0 mph 4.0 mph 63% 0.00 in
21:30 53.1 °F 40.8 °F 30.31 in NE 2.0 mph 4.0 mph 63% 0.00 in
21:33 53.1 °F 40.4 °F 30.31 in NE 3.0 mph 3.0 mph 62% 0.00 in
21:34 53.1 °F 40.4 °F 30.31 in NE 3.0 mph 3.0 mph 62% 0.00 in
21:35 53.1 °F 40.4 °F 30.31 in NE 3.0 mph 3.0 mph 62% 0.00 in
21:36 53.1 °F 40.4 °F 30.31 in NNE 2.0 mph 3.0 mph 62% 0.00 in
21:40 53.0 °F 40.3 °F 30.31 in NE 2.0 mph 4.0 mph 62% 0.00 in
21:45 52.8 °F 40.6 °F 30.31 in NNE 2.0 mph 3.0 mph 63% 0.00 in
21:50 52.6 °F 40.4 °F 30.31 in NNE 2.0 mph 3.0 mph 63% 0.00 in
21:51 52.6 °F 40.4 °F 30.31 in NE 3.0 mph 3.0 mph 63% 0.00 in
21:55 52.4 °F 40.6 °F 30.31 in NNE 1.0 mph 4.0 mph 64% 0.00 in
21:57 52.2 °F 40.8 °F 30.31 in NNE 2.0 mph 3.0 mph 65% 0.00 in
22:00 52.0 °F 40.6 °F 30.31 in NE 2.0 mph 3.0 mph 65% 0.00 in
22:01 52.0 °F 40.6 °F 30.31 in NE 1.0 mph 3.0 mph 65% 0.00 in
22:08 51.8 °F 40.4 °F 30.32 in NNE 2.0 mph 4.0 mph 65% 0.00 in
22:13 51.7 °F 40.3 °F 30.32 in NE 3.0 mph 3.0 mph 65% 0.00 in
22:19 51.3 °F 40.7 °F 30.33 in NNE 1.0 mph 2.0 mph 67% 0.00 in
22:26 51.2 °F 40.6 °F 30.33 in NE 2.0 mph 3.0 mph 67% 0.00 in
22:28 51.2 °F 40.6 °F 30.33 in NE 2.0 mph 3.0 mph 67% 0.00 in
22:31 51.2 °F 40.6 °F 30.33 in NE 2.0 mph 3.0 mph 67% 0.00 in
22:35 51.1 °F 40.5 °F 30.33 in NE 2.0 mph 3.0 mph 67% 0.00 in
22:36 51.0 °F 40.4 °F 30.33 in NE 2.0 mph 4.0 mph 67% 0.00 in
22:41 50.7 °F 40.5 °F 30.33 in NE 1.0 mph 2.0 mph 68% 0.00 in
22:42 50.6 °F 40.4 °F 30.33 in Calm   2.0 mph 68% 0.00 in
22:48 50.6 °F 40.4 °F 30.33 in NNE 2.0 mph 2.0 mph 68% 0.00 in
22:53 50.4 °F 40.6 °F 30.33 in NE 1.0 mph 2.0 mph 69% 0.00 in
22:54 50.3 °F 40.9 °F 30.33 in NE 2.0 mph 2.0 mph 70% 0.00 in
22:58 50.0 °F 40.6 °F 30.33 in NNE 1.0 mph 2.0 mph 70% 0.00 in
23:03 49.9 °F 40.5 °F 30.34 in NNE 1.0 mph 3.0 mph 70% 0.00 in
23:08 49.7 °F 40.7 °F 30.34 in NE 2.0 mph 3.0 mph 71% 0.00 in
23:09 49.6 °F 40.6 °F 30.34 in NNE 2.0 mph 3.0 mph 71% 0.00 in
23:14 49.5 °F 40.5 °F 30.34 in NNE 1.0 mph 3.0 mph 71% 0.00 in
23:19 49.4 °F 40.8 °F 30.34 in North 2.0 mph 4.0 mph 72% 0.00 in
23:20 49.3 °F 40.7 °F 30.34 in NNE 1.0 mph 4.0 mph 72% 0.00 in
23:24 49.1 °F 40.5 °F 30.34 in NNE 2.0 mph 3.0 mph 72% 0.00 in
23:29 49.0 °F 40.4 °F 30.34 in NE 2.0 mph 3.0 mph 72% 0.00 in
23:34 48.9 °F 40.6 °F 30.34 in NNE 2.0 mph 3.0 mph 73% 0.00 in
23:35 49.0 °F 40.7 °F 30.34 in NNE 3.0 mph 3.0 mph 73% 0.00 in
23:37 48.9 °F 40.6 °F 30.34 in NNE 2.0 mph 3.0 mph 73% 0.00 in
23:40 48.7 °F 40.5 °F 30.33 in NE 2.0 mph 3.0 mph 73% 0.00 in
23:42 48.7 °F 40.5 °F 30.34 in NNE 3.0 mph 3.0 mph 73% 0.00 in
23:47 48.5 °F 40.6 °F 30.34 in NNE 1.0 mph 3.0 mph 74% 0.00 in
23:52 48.4 °F 40.8 °F 30.34 in NNE 3.0 mph 3.0 mph 75% 0.00 in
23:57 48.1 °F 40.6 °F 30.34 in NE 3.0 mph 3.0 mph 75% 0.00 in
Compliments of Weather Underground